Time;durP1;ratioP1;P1;durP2;ratioP2;P2;SDS_P1;SDS_P2;PMS_P1;PMS_P2;Temp;Humidity;BMP_temperature;BMP_pressure;BME280_temperature;BME280_humidity;BME280_pressure;Samples;Min_cycle;Max_cycle;Signal;HPM_P1;HPM_P2
2023/02/11 08:26:48;;;;;;;;;;;;;;;;;;5850233;23;20025;-82
2023/02/11 08:29:14;;;;;;;;;;;;;;;;;;4938896;29;19974;-79
2023/02/11 14:10:29;;;;;;;;;;;;;;;;;;4976528;28;20017;-91
2023/02/11 14:13:05;;;;;;;;;;;;;;;;;;4975056;28;20284;-93
2023/02/11 14:15:37;;;;;;;;;;;;;;;;;;4974971;28;20005;-92
2023/02/11 14:18:22;;;;;;;;;;;;;;;;;;4977953;28;19961;-91
2023/02/11 14:20:49;;;;;;;;;;;;;;;;;;4975901;28;19918;-90
2023/02/11 14:23:20;;;;;;;;;;;;;;;;;;4976819;28;19914;-90
2023/02/11 14:25:51;;;;;;;;;;;;;;;;;;4976177;28;19925;-88
2023/02/11 14:28:23;;;;;;;;;;;;;;;;;;4974693;28;19914;-92
2023/02/11 14:30:51;;;;;;;;;;;;;;;;;;4974758;28;20053;-91
2023/02/11 14:33:27;;;;;;;;;;;;;;;;;;4976104;28;19914;-92
2023/02/11 14:35:58;;;;;;;;;;;;;;;;;;4975288;28;20364;-90
2023/02/11 14:38:39;;;;;;;;;;;;;;;;;;4975522;28;19914;-89
2023/02/11 14:41:05;;;;;;;;;;;;;;;;;;4974492;28;20277;-89
2023/02/11 14:43:33;;;;;;;;;;;;;;;;;;4974356;28;19917;-90
2023/02/11 14:46:00;;;;;;;;;;;;;;;;;;4974344;28;19976;-90
2023/02/11 14:48:30;;;;;;;;;;;;;;;;;;4974230;28;19918;-89
2023/02/11 14:51:04;;;;;;;;;;;;;;;;;;4975512;28;19977;-90
2023/02/11 14:53:30;;;;;;;;;;;;;;;;;;4974467;28;20357;-90
2023/02/11 14:55:56;;;;;;;;;;;;;;;;;;4974645;28;19922;-90
2023/02/11 14:58:28;;;;;;;;;;;;;;;;;;4976184;28;19914;-90
2023/02/11 15:00:56;;;;;;;;;;;;;;;;;;4978370;28;20384;-90
2023/02/11 15:03:25;;;;;;;;;;;;;;;;;;4978707;28;19918;-90
2023/02/11 15:06:17;;;;;;;;;;;;;;;;;;4978115;28;19973;-90
2023/02/11 15:08:45;;;;;;;;;;;;;;;;;;4978005;28;19914;-89
2023/02/11 15:11:12;;;;;;;;;;;;;;;;;;4979447;28;20005;-90
2023/02/11 15:13:37;;;;;;;;;;;;;;;;;;4979370;28;19965;-89
2023/02/11 15:16:08;;;;;;;;;;;;;;;;;;4979287;28;19953;-90
2023/02/11 15:18:39;;;;;;;;;;;;;;;;;;4978225;28;19965;-90
2023/02/11 15:21:05;;;;;;;;;;;;;;;;;;4978071;28;19992;-89
2023/02/11 15:23:31;;;;;;;;;;;;;;;;;;4978913;28;19972;-89
2023/02/11 15:25:56;;;;;;;;;;;;;;;;;;4978003;28;19914;-89
2023/02/11 15:28:27;;;;;;;;;;;;;;;;;;4978823;28;19967;-90
2023/02/11 15:31:00;;;;;;;;;;;;;;;;;;4980727;28;20027;-90
2023/02/11 15:33:28;;;;;;;;;;;;;;;;;;4980097;28;19923;-90
2023/02/11 15:35:54;;;;;;;;;;;;;;;;;;4978876;28;20287;-87
2023/02/11 15:38:19;;;;;;;;;;;;;;;;;;4977845;28;19914;-92
2023/02/11 15:40:55;;;;;;;;;;;;;;;;;;4977747;28;19925;-92
2023/02/11 15:43:21;;;;;;;;;;;;;;;;;;4977947;28;20372;-92
2023/02/11 15:45:49;;;;;;;;;;;;;;;;;;4977747;28;19914;-90
2023/02/11 15:48:17;;;;;;;;;;;;;;;;;;4977947;28;19914;-93
2023/02/11 15:50:48;;;;;;;;;;;;;;;;;;4977563;28;19921;-92
2023/02/11 15:53:20;;;;;;;;;;;;;;;;;;4977567;28;19956;-91
2023/02/11 15:55:45;;;;;;;;;;;;;;;;;;4977975;28;20352;-92
2023/02/11 15:58:11;;;;;;;;;;;;;;;;;;4978796;28;19925;-94
2023/02/11 16:00:43;;;;;;;;;;;;;;;;;;4978806;28;19960;-92
2023/02/11 16:03:18;;;;;;;;;;;;;;;;;;4979105;28;19965;-95
2023/02/11 16:05:43;;;;;;;;;;;;;;;;;;4982332;28;19914;-95
2023/02/11 16:08:19;;;;;;;;;;;;;;;;;;4977629;28;19914;-96
2023/02/11 16:10:53;;;;;;;;;;;;;;;;;;4979212;28;19964;-95
2023/02/11 16:13:19;;;;;;;;;;;;;;;;;;4977790;28;20304;-95
2023/02/11 16:16:01;;;;;;;;;;;;;;;;;;4977547;28;19914;-94
2023/02/11 16:18:26;;;;;;;;;;;;;;;;;;4982208;28;20357;-96
2023/02/11 16:20:51;;;;;;;;;;;;;;;;;;4977768;28;19921;-96
2023/02/11 16:23:27;;;;;;;;;;;;;;;;;;4980083;28;19929;-93
2023/02/11 16:26:07;;;;;;;;;;;;;;;;;;4977664;28;19922;-90
2023/02/11 16:28:34;;;;;;;;;;;;;;;;;;4977142;28;19921;-92
2023/02/11 16:30:59;;;;;;;;;;;;;;;;;;4977679;28;20009;-91
2023/02/11 16:33:25;;;;;;;;;;;;;;;;;;4977555;28;20080;-93
2023/02/11 16:35:50;;;;;;;;;;;;;;;;;;4977044;28;19948;-91
2023/02/11 16:38:16;;;;;;;;;;;;;;;;;;4969229;28;19918;-89
2023/02/11 16:40:43;;;;;;;;;;;;;;;;;;4965081;28;19918;-88
2023/02/11 16:43:08;;;;;;;;;;;;;;;;;;4959008;29;19949;-92
2023/02/11 16:45:37;;;;;;;;;;;;;;;;;;4957307;29;19914;-90
2023/02/11 16:48:07;;;;;;;;;;;;;;;;;;4957757;29;20008;-90
2023/02/11 16:50:32;;;;;;;;;;;;;;;;;;4959359;29;20005;-89
2023/02/11 16:52:59;;;;;;;;;;;;;;;;;;4959279;29;20025;-89
2023/02/11 16:55:27;;;;;;;;;;;;;;;;;;4957648;29;19962;-89
2023/02/11 16:57:55;;;;;;;;;;;;;;;;;;4959287;29;19965;-89
2023/02/11 17:00:21;;;;;;;;;;;;;;;;;;4956649;29;20004;-88
2023/02/11 17:02:46;;;;;;;;;;;;;;;;;;4956663;29;19993;-89
2023/02/11 17:05:21;;;;;;;;;;;;;;;;;;4957623;29;20375;-88
2023/02/11 17:07:47;;;;;;;;;;;;;;;;;;4957440;29;19914;-88
2023/02/11 17:10:16;;;;;;;;;;;;;;;;;;4957258;28;20017;-89
2023/02/11 17:12:42;;;;;;;;;;;;;;;;;;4956588;29;19914;-88
2023/02/11 17:15:07;;;;;;;;;;;;;;;;;;4958177;29;20251;-88
2023/02/11 17:17:33;;;;;;;;;;;;;;;;;;4958431;29;20310;-92
2023/02/11 17:19:58;;;;;;;;;;;;;;;;;;4956381;28;19918;-88
2023/02/11 17:22:23;;;;;;;;;;;;;;;;;;4958204;29;19918;-90
2023/02/11 17:24:49;;;;;;;;;;;;;;;;;;4958286;28;19937;-91
2023/02/11 17:27:15;;;;;;;;;;;;;;;;;;4957572;29;20273;-92
2023/02/11 17:29:40;;;;;;;;;;;;;;;;;;4958311;28;19954;-92
2023/02/11 17:32:06;;;;;;;;;;;;;;;;;;4958050;29;20012;-88
2023/02/11 17:34:31;;;;;;;;;;;;;;;;;;4958782;29;19921;-89
2023/02/11 17:36:58;;;;;;;;;;;;;;;;;;4955226;28;19914;-90
2023/02/11 17:39:24;;;;;;;;;;;;;;;;;;4972267;28;19918;-89
2023/02/11 17:41:53;;;;;;;;;;;;;;;;;;4976169;28;19961;-90
2023/02/11 17:44:18;;;;;;;;;;;;;;;;;;4976151;28;19913;-89
2023/02/11 17:46:43;;;;;;;;;;;;;;;;;;4975066;28;19969;-90
2023/02/11 17:49:10;;;;;;;;;;;;;;;;;;4975508;28;20000;-89
2023/02/11 17:51:36;;;;;;;;;;;;;;;;;;4976223;28;20479;-90
2023/02/11 17:54:06;;;;;;;;;;;;;;;;;;4975292;28;19914;-91
2023/02/11 17:56:32;;;;;;;;;;;;;;;;;;4975581;28;19914;-90
2023/02/11 17:58:57;;;;;;;;;;;;;;;;;;4975859;28;19918;-92
2023/02/11 18:01:25;;;;;;;;;;;;;;;;;;4976346;28;20013;-87
2023/02/11 18:03:51;;;;;;;;;;;;;;;;;;4975728;28;19922;-87
2023/02/11 18:06:16;;;;;;;;;;;;;;;;;;4975971;28;19914;-88
2023/02/11 18:08:42;;;;;;;;;;;;;;;;;;4976093;28;20017;-87
2023/02/11 18:11:08;;;;;;;;;;;;;;;;;;4975920;28;19974;-89
2023/02/11 18:13:34;;;;;;;;;;;;;;;;;;4975693;28;19917;-87
2023/02/11 18:16:14;;;;;;;;;;;;;;;;;;4975498;28;19913;-91
2023/02/11 18:18:40;;;;;;;;;;;;;;;;;;4976201;28;19922;-86
2023/02/11 18:21:07;;;;;;;;;;;;;;;;;;4975381;28;19961;-89
2023/02/11 18:23:33;;;;;;;;;;;;;;;;;;4975651;28;20040;-91
2023/02/11 18:25:58;;;;;;;;;;;;;;;;;;4975760;28;19949;-89
2023/02/11 18:28:24;;;;;;;;;;;;;;;;;;4976965;28;19914;-91
2023/02/11 18:30:56;;;;;;;;;;;;;;;;;;4975600;28;19914;-94
2023/02/11 18:33:21;;;;;;;;;;;;;;;;;;4976995;28;19921;-87
2023/02/11 18:35:47;;;;;;;;;;;;;;;;;;4977067;28;19914;-91
2023/02/11 18:38:13;;;;;;;;;;;;;;;;;;4975838;28;19968;-90
2023/02/11 18:40:41;;;;;;;;;;;;;;;;;;4975847;28;19914;-91
2023/02/11 18:43:09;;;;;;;;;;;;;;;;;;4976177;28;19976;-89
2023/02/11 18:45:41;;;;;;;;;;;;;;;;;;4974879;28;19958;-88
2023/02/11 18:48:09;;;;;;;;;;;;;;;;;;4975685;28;19924;-89
2023/02/11 18:50:34;;;;;;;;;;;;;;;;;;4975511;28;19925;-88
2023/02/11 18:52:59;;;;;;;;;;;;;;;;;;4975846;28;19914;-89
2023/02/11 18:55:25;;;;;;;;;;;;;;;;;;4976128;28;19918;-90
2023/02/11 18:57:51;;;;;;;;;;;;;;;;;;4976242;28;19934;-92
2023/02/11 19:00:17;;;;;;;;;;;;;;;;;;4975575;28;19960;-89
2023/02/11 19:02:43;;;;;;;;;;;;;;;;;;4974038;28;19914;-90
2023/02/11 19:05:08;;;;;;;;;;;;;;;;;;4975418;28;20337;-90
2023/02/11 19:07:34;;;;;;;;;;;;;;;;;;4974405;28;20325;-90
2023/02/11 19:09:59;;;;;;;;;;;;;;;;;;4974897;28;19964;-89
2023/02/11 19:12:24;;;;;;;;;;;;;;;;;;4974906;28;20013;-88
2023/02/11 19:14:50;;;;;;;;;;;;;;;;;;4974848;28;20385;-87
2023/02/11 19:17:15;;;;;;;;;;;;;;;;;;4975077;28;19941;-89
2023/02/11 19:19:41;;;;;;;;;;;;;;;;;;4975233;28;19918;-92
2023/02/11 19:22:06;;;;;;;;;;;;;;;;;;4973902;28;19925;-89
2023/02/11 19:24:32;;;;;;;;;;;;;;;;;;4973755;28;19977;-90
2023/02/11 19:26:59;;;;;;;;;;;;;;;;;;4973893;28;19914;-89
2023/02/11 19:29:24;;;;;;;;;;;;;;;;;;4973580;28;19921;-89
2023/02/11 19:31:50;;;;;;;;;;;;;;;;;;4975302;28;19918;-89
2023/02/11 19:34:16;;;;;;;;;;;;;;;;;;4974010;28;19914;-89
2023/02/11 19:36:41;;;;;;;;;;;;;;;;;;4975155;28;20356;-91
2023/02/11 19:39:07;;;;;;;;;;;;;;;;;;4975042;28;20022;-90
2023/02/11 19:41:33;;;;;;;;;;;;;;;;;;4975159;28;19914;-89
2023/02/11 19:43:59;;;;;;;;;;;;;;;;;;4975261;28;19917;-90
2023/02/11 19:46:27;;;;;;;;;;;;;;;;;;4978527;28;19914;-92
2023/02/11 19:48:53;;;;;;;;;;;;;;;;;;4978324;28;20002;-90
2023/02/11 19:51:19;;;;;;;;;;;;;;;;;;4979813;28;19941;-90
2023/02/11 19:53:45;;;;;;;;;;;;;;;;;;4978931;28;19967;-90
2023/02/11 19:56:12;;;;;;;;;;;;;;;;;;4979109;28;20373;-91
2023/02/11 19:58:38;;;;;;;;;;;;;;;;;;4978352;28;19914;-89
2023/02/11 20:01:04;;;;;;;;;;;;;;;;;;4978865;28;19997;-92
2023/02/11 20:03:33;;;;;;;;;;;;;;;;;;4984937;28;19941;-94
2023/02/11 20:05:58;;;;;;;;;;;;;;;;;;4979859;28;19938;-90
2023/02/11 20:08:24;;;;;;;;;;;;;;;;;;4979499;28;19917;-90
2023/02/11 20:10:49;;;;;;;;;;;;;;;;;;4978441;28;20000;-91
2023/02/11 20:13:14;;;;;;;;;;;;;;;;;;4977245;28;20025;-89
2023/02/11 20:15:40;;;;;;;;;;;;;;;;;;4978103;28;19914;-92
2023/02/11 20:18:05;;;;;;;;;;;;;;;;;;4980590;28;19918;-92
2023/02/11 20:20:30;;;;;;;;;;;;;;;;;;4980187;28;19918;-92
2023/02/11 20:22:57;;;;;;;;;;;;;;;;;;4979403;28;19914;-92
2023/02/11 20:25:22;;;;;;;;;;;;;;;;;;4978996;28;19914;-92
2023/02/11 20:27:48;;;;;;;;;;;;;;;;;;4977680;28;20277;-93
2023/02/11 20:30:13;;;;;;;;;;;;;;;;;;4978000;28;20361;-91
2023/02/11 20:32:39;;;;;;;;;;;;;;;;;;4978137;28;20381;-91
2023/02/11 20:35:06;;;;;;;;;;;;;;;;;;4977702;28;19921;-91
2023/02/11 20:37:31;;;;;;;;;;;;;;;;;;4965141;28;19961;-91
2023/02/11 20:39:57;;;;;;;;;;;;;;;;;;4959863;29;19937;-92
2023/02/11 20:42:23;;;;;;;;;;;;;;;;;;4958856;28;19945;-92
2023/02/11 20:44:48;;;;;;;;;;;;;;;;;;4958441;29;19922;-93
2023/02/11 20:47:13;;;;;;;;;;;;;;;;;;4959321;29;19915;-92
2023/02/11 20:49:39;;;;;;;;;;;;;;;;;;4958198;28;20354;-92
2023/02/11 20:52:04;;;;;;;;;;;;;;;;;;4958636;29;19937;-92
2023/02/11 20:54:30;;;;;;;;;;;;;;;;;;4958436;28;19915;-93
2023/02/11 20:56:57;;;;;;;;;;;;;;;;;;4957923;29;19969;-91
2023/02/11 20:59:22;;;;;;;;;;;;;;;;;;4958244;29;19914;-91
2023/02/11 21:01:49;;;;;;;;;;;;;;;;;;4959025;28;19921;-88
2023/02/11 21:04:19;;;;;;;;;;;;;;;;;;4960122;29;20350;-94
2023/02/11 21:06:46;;;;;;;;;;;;;;;;;;4959582;29;19946;-92
2023/02/11 21:09:18;;;;;;;;;;;;;;;;;;4960005;29;19950;-92
2023/02/11 21:11:43;;;;;;;;;;;;;;;;;;4959464;29;19914;-94
2023/02/11 21:14:09;;;;;;;;;;;;;;;;;;4959116;28;20312;-94
2023/02/11 21:16:35;;;;;;;;;;;;;;;;;;4959621;29;19914;-95
2023/02/11 21:19:01;;;;;;;;;;;;;;;;;;4958780;29;19914;-93
2023/02/11 21:21:27;;;;;;;;;;;;;;;;;;4959323;29;19922;-93
2023/02/11 21:23:55;;;;;;;;;;;;;;;;;;4957410;29;20365;-94
2023/02/11 21:26:21;;;;;;;;;;;;;;;;;;4958028;29;20274;-89
2023/02/11 21:28:47;;;;;;;;;;;;;;;;;;4956160;28;19918;-88
2023/02/11 21:31:20;;;;;;;;;;;;;;;;;;4957891;29;20017;-88
2023/02/11 21:33:46;;;;;;;;;;;;;;;;;;4958222;29;19919;-88
2023/02/11 21:36:12;;;;;;;;;;;;;;;;;;4957776;29;19918;-89
2023/02/11 21:38:38;;;;;;;;;;;;;;;;;;4957573;29;19925;-87
2023/02/11 21:41:06;;;;;;;;;;;;;;;;;;4957208;29;20005;-87
2023/02/11 21:43:32;;;;;;;;;;;;;;;;;;4957308;29;20009;-88
2023/02/11 21:45:58;;;;;;;;;;;;;;;;;;4955878;29;19987;-88
2023/02/11 21:48:25;;;;;;;;;;;;;;;;;;4955908;28;19919;-86
2023/02/11 21:50:51;;;;;;;;;;;;;;;;;;4955873;29;20017;-88
2023/02/11 21:53:19;;;;;;;;;;;;;;;;;;4955820;28;19969;-87
2023/02/11 21:55:45;;;;;;;;;;;;;;;;;;4956644;29;20365;-88
2023/02/11 21:58:11;;;;;;;;;;;;;;;;;;4955834;28;19929;-87
2023/02/11 22:00:37;;;;;;;;;;;;;;;;;;4956781;29;19914;-88
2023/02/11 22:03:12;;;;;;;;;;;;;;;;;;4955417;28;19937;-88
2023/02/11 22:05:38;;;;;;;;;;;;;;;;;;4956139;29;19922;-88
2023/02/11 22:08:07;;;;;;;;;;;;;;;;;;4954914;28;19919;-89
2023/02/11 22:10:32;;;;;;;;;;;;;;;;;;4956776;29;19918;-86
2023/02/11 22:13:01;;;;;;;;;;;;;;;;;;4957012;29;19940;-90
2023/02/11 22:15:26;;;;;;;;;;;;;;;;;;4955830;28;19923;-87
2023/02/11 22:17:51;;;;;;;;;;;;;;;;;;4956419;29;19934;-89
2023/02/11 22:20:17;;;;;;;;;;;;;;;;;;4956321;29;19925;-89
2023/02/11 22:22:42;;;;;;;;;;;;;;;;;;4955796;29;19919;-89
2023/02/11 22:25:14;;;;;;;;;;;;;;;;;;4955879;28;20429;-90
2023/02/11 22:27:49;;;;;;;;;;;;;;;;;;4957234;29;19918;-89
2023/02/11 22:30:14;;;;;;;;;;;;;;;;;;4954925;29;19919;-88
2023/02/11 22:32:41;;;;;;;;;;;;;;;;;;4956963;29;20289;-88
2023/02/11 22:35:06;;;;;;;;;;;;;;;;;;4954965;28;19950;-88
2023/02/11 22:37:32;;;;;;;;;;;;;;;;;;4955779;29;20400;-89
2023/02/11 22:39:57;;;;;;;;;;;;;;;;;;4956535;29;20021;-89
2023/02/11 22:42:23;;;;;;;;;;;;;;;;;;4956039;29;20016;-88
2023/02/11 22:44:51;;;;;;;;;;;;;;;;;;4955244;29;20012;-88
2023/02/11 22:47:16;;;;;;;;;;;;;;;;;;4955056;29;20404;-88
2023/02/11 22:49:42;;;;;;;;;;;;;;;;;;4955117;29;19969;-88
